sensor_id;sensor_type;location;lat;lon;timestamp;pressure;altitude;pressure_sealevel;temperature;humidity
62057;BME280;48016;50.284;18.860;2023-03-21T00:02:14;98122.83;;;8.86;82.62
62057;BME280;48016;50.284;18.860;2023-03-21T00:04:41;98123.59;;;8.86;82.53
62057;BME280;48016;50.284;18.860;2023-03-21T00:07:08;98124.36;;;8.88;82.40
62057;BME280;48016;50.284;18.860;2023-03-21T00:09:35;98118.20;;;8.90;82.37
62057;BME280;48016;50.284;18.860;2023-03-21T00:12:01;98115.17;;;8.94;82.14
62057;BME280;48016;50.284;18.860;2023-03-21T00:14:32;98115.23;;;8.97;82.25
62057;BME280;48016;50.284;18.860;2023-03-21T00:16:59;98116.80;;;8.99;82.37
62057;BME280;48016;50.284;18.860;2023-03-21T00:19:26;98115.27;;;9.00;82.58
62057;BME280;48016;50.284;18.860;2023-03-21T00:21:55;98117.10;;;9.00;82.77
62057;BME280;48016;50.284;18.860;2023-03-21T00:24:22;98116.14;;;9.01;82.67
62057;BME280;48016;50.284;18.860;2023-03-21T00:26:49;98114.92;;;9.00;82.58
62057;BME280;48016;50.284;18.860;2023-03-21T00:29:17;98110.88;;;8.99;82.14
62057;BME280;48016;50.284;18.860;2023-03-21T00:31:44;98114.34;;;8.95;82.49
62057;BME280;48016;50.284;18.860;2023-03-21T00:34:11;98110.98;;;8.95;82.52
62057;BME280;48016;50.284;18.860;2023-03-21T00:36:38;98113.33;;;8.94;82.58
62057;BME280;48016;50.284;18.860;2023-03-21T00:39:04;98112.18;;;8.92;82.68
62057;BME280;48016;50.284;18.860;2023-03-21T00:41:31;98113.72;;;8.90;82.86
62057;BME280;48016;50.284;18.860;2023-03-21T00:43:58;98111.77;;;8.89;83.02
62057;BME280;48016;50.284;18.860;2023-03-21T00:46:25;98113.83;;;8.91;83.03
62057;BME280;48016;50.284;18.860;2023-03-21T00:48:51;98112.73;;;8.93;83.01
62057;BME280;48016;50.284;18.860;2023-03-21T00:51:21;98109.00;;;8.93;83.22
62057;BME280;48016;50.284;18.860;2023-03-21T00:53:56;98108.95;;;8.89;83.37
62057;BME280;48016;50.284;18.860;2023-03-21T00:56:24;98112.84;;;8.86;83.50
62057;BME280;48016;50.284;18.860;2023-03-21T00:58:50;98113.58;;;8.85;83.50
62057;BME280;48016;50.284;18.860;2023-03-21T01:01:17;98114.86;;;8.83;83.27
62057;BME280;48016;50.284;18.860;2023-03-21T01:03:44;98116.90;;;8.83;83.33
62057;BME280;48016;50.284;18.860;2023-03-21T01:06:13;98113.05;;;8.82;83.32
62057;BME280;48016;50.284;18.860;2023-03-21T01:08:46;98110.19;;;8.81;83.25
62057;BME280;48016;50.284;18.860;2023-03-21T01:11:17;98112.88;;;8.80;83.48
62057;BME280;48016;50.284;18.860;2023-03-21T01:21:09;98102.60;;;8.87;83.41
62057;BME280;48016;50.284;18.860;2023-03-21T01:23:36;98101.66;;;8.84;83.85
62057;BME280;48016;50.284;18.860;2023-03-21T01:26:02;98100.84;;;8.84;83.89
62057;BME280;48016;50.284;18.860;2023-03-21T01:28:28;98099.46;;;8.85;83.90
62057;BME280;48016;50.284;18.860;2023-03-21T01:30:55;98096.52;;;8.87;83.84
62057;BME280;48016;50.284;18.860;2023-03-21T01:33:22;98096.64;;;8.87;83.66
62057;BME280;48016;50.284;18.860;2023-03-21T01:35:48;98092.95;;;8.86;83.63
62057;BME280;48016;50.284;18.860;2023-03-21T01:38:14;98088.73;;;8.86;83.69
62057;BME280;48016;50.284;18.860;2023-03-21T01:40:40;98089.58;;;8.87;83.90
62057;BME280;48016;50.284;18.860;2023-03-21T01:48:30;98089.41;;;8.87;83.99
62057;BME280;48016;50.284;18.860;2023-03-21T01:50:57;98086.79;;;8.85;84.09
62057;BME280;48016;50.284;18.860;2023-03-21T01:53:26;98085.86;;;8.79;84.41
62057;BME280;48016;50.284;18.860;2023-03-21T01:56:22;98086.33;;;8.77;84.34
62057;BME280;48016;50.284;18.860;2023-03-21T01:58:53;98081.41;;;8.78;84.11
62057;BME280;48016;50.284;18.860;2023-03-21T02:01:20;98077.52;;;8.77;83.90
62057;BME280;48016;50.284;18.860;2023-03-21T02:03:47;98077.78;;;8.77;83.90
62057;BME280;48016;50.284;18.860;2023-03-21T02:06:23;98078.30;;;8.74;84.01
62057;BME280;48016;50.284;18.860;2023-03-21T02:08:57;98077.46;;;8.73;84.03
62057;BME280;48016;50.284;18.860;2023-03-21T02:11:26;98072.44;;;8.72;84.03
62057;BME280;48016;50.284;18.860;2023-03-21T02:13:54;98075.55;;;8.71;84.09
62057;BME280;48016;50.284;18.860;2023-03-21T02:19:31;98065.54;;;8.68;84.28
62057;BME280;48016;50.284;18.860;2023-03-21T02:23:09;98068.59;;;8.67;84.30
62057;BME280;48016;50.284;18.860;2023-03-21T02:27:51;98069.17;;;8.74;84.07
62057;BME280;48016;50.284;18.860;2023-03-21T02:30:33;98069.05;;;8.76;84.05
62057;BME280;48016;50.284;18.860;2023-03-21T02:35:56;98071.29;;;8.79;84.22
62057;BME280;48016;50.284;18.860;2023-03-21T02:41:16;98076.76;;;8.80;84.31
62057;BME280;48016;50.284;18.860;2023-03-21T02:43:55;98078.30;;;8.82;83.97
62057;BME280;48016;50.284;18.860;2023-03-21T02:46:36;98077.95;;;8.81;83.83
62057;BME280;48016;50.284;18.860;2023-03-21T02:49:26;98075.73;;;8.82;83.89
62057;BME280;48016;50.284;18.860;2023-03-21T02:51:57;98075.00;;;8.82;83.76
62057;BME280;48016;50.284;18.860;2023-03-21T02:54:24;98074.90;;;8.82;84.03
62057;BME280;48016;50.284;18.860;2023-03-21T02:56:54;98074.34;;;8.80;84.14
62057;BME280;48016;50.284;18.860;2023-03-21T02:59:23;98074.33;;;8.81;84.31
62057;BME280;48016;50.284;18.860;2023-03-21T03:01:53;98076.63;;;8.78;84.28
62057;BME280;48016;50.284;18.860;2023-03-21T03:04:25;98074.73;;;8.78;84.33
62057;BME280;48016;50.284;18.860;2023-03-21T03:09:28;98074.15;;;8.83;84.02
62057;BME280;48016;50.284;18.860;2023-03-21T03:12:11;98073.27;;;8.81;84.18
62057;BME280;48016;50.284;18.860;2023-03-21T03:17:51;98072.88;;;8.77;84.31
62057;BME280;48016;50.284;18.860;2023-03-21T03:20:27;98073.71;;;8.74;84.57
62057;BME280;48016;50.284;18.860;2023-03-21T03:25:44;98073.20;;;8.73;84.26
62057;BME280;48016;50.284;18.860;2023-03-21T03:28:16;98070.02;;;8.73;84.28
62057;BME280;48016;50.284;18.860;2023-03-21T03:30:47;98067.86;;;8.73;84.30
62057;BME280;48016;50.284;18.860;2023-03-21T03:33:15;98065.21;;;8.72;84.27
62057;BME280;48016;50.284;18.860;2023-03-21T03:35:43;98066.79;;;8.73;84.33
62057;BME280;48016;50.284;18.860;2023-03-21T03:38:11;98064.00;;;8.70;84.33
62057;BME280;48016;50.284;18.860;2023-03-21T03:40:48;98066.58;;;8.66;84.32
62057;BME280;48016;50.284;18.860;2023-03-21T03:43:25;98075.38;;;8.63;84.44
62057;BME280;48016;50.284;18.860;2023-03-21T03:46:05;98071.16;;;8.61;84.22
62057;BME280;48016;50.284;18.860;2023-03-21T03:48:42;98070.02;;;8.57;84.45
62057;BME280;48016;50.284;18.860;2023-03-21T03:51:28;98072.75;;;8.56;84.49
62057;BME280;48016;50.284;18.860;2023-03-21T03:54:04;98076.14;;;8.56;84.59
62057;BME280;48016;50.284;18.860;2023-03-21T03:56:32;98077.83;;;8.56;84.58
62057;BME280;48016;50.284;18.860;2023-03-21T03:59:01;98076.69;;;8.56;84.62
62057;BME280;48016;50.284;18.860;2023-03-21T04:01:29;98073.95;;;8.53;84.68
62057;BME280;48016;50.284;18.860;2023-03-21T04:03:55;98068.86;;;8.52;84.71
62057;BME280;48016;50.284;18.860;2023-03-21T04:06:21;98065.11;;;8.53;84.59
62057;BME280;48016;50.284;18.860;2023-03-21T04:08:47;98066.83;;;8.55;84.67
62057;BME280;48016;50.284;18.860;2023-03-21T04:11:14;98072.71;;;8.58;84.71
62057;BME280;48016;50.284;18.860;2023-03-21T04:13:42;98067.17;;;8.61;84.67
62057;BME280;48016;50.284;18.860;2023-03-21T04:16:09;98070.27;;;8.63;84.56
62057;BME280;48016;50.284;18.860;2023-03-21T04:18:36;98069.17;;;8.61;84.58
62057;BME280;48016;50.284;18.860;2023-03-21T04:21:08;98074.89;;;8.55;84.62
62057;BME280;48016;50.284;18.860;2023-03-21T04:23:35;98074.75;;;8.53;84.75
62057;BME280;48016;50.284;18.860;2023-03-21T04:26:02;98072.95;;;8.54;84.66
62057;BME280;48016;50.284;18.860;2023-03-21T04:28:28;98074.88;;;8.57;84.47
62057;BME280;48016;50.284;18.860;2023-03-21T04:30:54;98075.31;;;8.58;84.32
62057;BME280;48016;50.284;18.860;2023-03-21T04:33:23;98068.94;;;8.57;84.41
62057;BME280;48016;50.284;18.860;2023-03-21T04:35:51;98066.63;;;8.57;84.63
62057;BME280;48016;50.284;18.860;2023-03-21T04:38:24;98064.15;;;8.58;84.73
62057;BME280;48016;50.284;18.860;2023-03-21T04:40:56;98064.78;;;8.60;84.67
62057;BME280;48016;50.284;18.860;2023-03-21T04:43:22;98067.86;;;8.62;84.61
62057;BME280;48016;50.284;18.860;2023-03-21T04:45:49;98069.04;;;8.60;84.52
62057;BME280;48016;50.284;18.860;2023-03-21T04:48:15;98073.83;;;8.60;84.54
62057;BME280;48016;50.284;18.860;2023-03-21T04:50:45;98071.81;;;8.61;84.38
62057;BME280;48016;50.284;18.860;2023-03-21T04:53:11;98070.55;;;8.57;84.40
62057;BME280;48016;50.284;18.860;2023-03-21T04:55:37;98068.92;;;8.56;84.41
62057;BME280;48016;50.284;18.860;2023-03-21T04:58:04;98062.94;;;8.55;84.48
62057;BME280;48016;50.284;18.860;2023-03-21T05:00:30;98056.48;;;8.52;84.35
62057;BME280;48016;50.284;18.860;2023-03-21T05:02:57;98057.18;;;8.49;84.36
62057;BME280;48016;50.284;18.860;2023-03-21T05:05:23;98060.50;;;8.47;84.43
62057;BME280;48016;50.284;18.860;2023-03-21T05:07:50;98066.30;;;8.46;84.62
62057;BME280;48016;50.284;18.860;2023-03-21T05:10:16;98062.60;;;8.47;84.50
62057;BME280;48016;50.284;18.860;2023-03-21T05:12:42;98068.58;;;8.47;84.43
62057;BME280;48016;50.284;18.860;2023-03-21T05:15:08;98077.14;;;8.47;84.58
62057;BME280;48016;50.284;18.860;2023-03-21T05:17:34;98073.23;;;8.48;84.46
62057;BME280;48016;50.284;18.860;2023-03-21T05:20:01;98077.03;;;8.47;84.56
62057;BME280;48016;50.284;18.860;2023-03-21T05:22:29;98078.67;;;8.45;84.62
62057;BME280;48016;50.284;18.860;2023-03-21T05:25:08;98081.56;;;8.43;84.54
62057;BME280;48016;50.284;18.860;2023-03-21T05:27:35;98081.72;;;8.44;84.66
62057;BME280;48016;50.284;18.860;2023-03-21T05:30:08;98080.02;;;8.45;84.66
62057;BME280;48016;50.284;18.860;2023-03-21T05:32:34;98080.05;;;8.47;84.62
62057;BME280;48016;50.284;18.860;2023-03-21T05:35:00;98079.17;;;8.50;84.64
62057;BME280;48016;50.284;18.860;2023-03-21T05:37:27;98080.83;;;8.51;84.45
62057;BME280;48016;50.284;18.860;2023-03-21T05:39:53;98082.31;;;8.54;84.46
62057;BME280;48016;50.284;18.860;2023-03-21T05:42:19;98082.95;;;8.57;84.52
62057;BME280;48016;50.284;18.860;2023-03-21T05:44:45;98083.23;;;8.62;84.34
62057;BME280;48016;50.284;18.860;2023-03-21T05:47:12;98081.99;;;8.66;84.33
62057;BME280;48016;50.284;18.860;2023-03-21T05:49:39;98084.98;;;8.68;84.29
62057;BME280;48016;50.284;18.860;2023-03-21T05:52:05;98083.02;;;8.69;84.12
62057;BME280;48016;50.284;18.860;2023-03-21T05:54:31;98087.44;;;8.70;84.06
62057;BME280;48016;50.284;18.860;2023-03-21T05:56:57;98087.58;;;8.72;83.93
62057;BME280;48016;50.284;18.860;2023-03-21T05:59:23;98087.95;;;8.72;83.96
62057;BME280;48016;50.284;18.860;2023-03-21T06:01:48;98087.77;;;8.74;84.03
62057;BME280;48016;50.284;18.860;2023-03-21T06:04:15;98087.71;;;8.77;84.12
62057;BME280;48016;50.284;18.860;2023-03-21T06:06:41;98082.30;;;8.79;84.09
62057;BME280;48016;50.284;18.860;2023-03-21T06:09:07;98081.62;;;8.81;84.06
62057;BME280;48016;50.284;18.860;2023-03-21T06:11:35;98081.02;;;8.80;83.88
62057;BME280;48016;50.284;18.860;2023-03-21T06:14:02;98085.99;;;8.78;83.85
62057;BME280;48016;50.284;18.860;2023-03-21T06:16:28;98090.73;;;8.77;83.87
62057;BME280;48016;50.284;18.860;2023-03-21T06:18:54;98092.52;;;8.77;83.91
62057;BME280;48016;50.284;18.860;2023-03-21T06:21:21;98094.39;;;8.81;84.01
62057;BME280;48016;50.284;18.860;2023-03-21T06:23:47;98097.18;;;8.83;84.01
62057;BME280;48016;50.284;18.860;2023-03-21T06:26:16;98094.09;;;8.87;84.01
62057;BME280;48016;50.284;18.860;2023-03-21T06:28:44;98095.84;;;8.92;84.07
62057;BME280;48016;50.284;18.860;2023-03-21T06:31:10;98096.73;;;8.91;83.93
62057;BME280;48016;50.284;18.860;2023-03-21T06:33:36;98106.35;;;8.87;83.61
62057;BME280;48016;50.284;18.860;2023-03-21T06:36:02;98105.84;;;8.86;83.54
62057;BME280;48016;50.284;18.860;2023-03-21T06:38:28;98110.27;;;8.83;83.69
62057;BME280;48016;50.284;18.860;2023-03-21T06:40:54;98114.88;;;8.81;83.86
62057;BME280;48016;50.284;18.860;2023-03-21T06:43:20;98117.48;;;8.82;83.94
62057;BME280;48016;50.284;18.860;2023-03-21T06:45:46;98118.41;;;8.82;84.00
62057;BME280;48016;50.284;18.860;2023-03-21T06:48:12;98119.55;;;8.83;84.06
62057;BME280;48016;50.284;18.860;2023-03-21T06:50:37;98120.31;;;8.84;84.08
62057;BME280;48016;50.284;18.860;2023-03-21T06:53:03;98124.63;;;8.83;84.01
62057;BME280;48016;50.284;18.860;2023-03-21T06:55:29;98124.40;;;8.83;83.88
62057;BME280;48016;50.284;18.860;2023-03-21T06:57:56;98128.77;;;8.84;83.91
62057;BME280;48016;50.284;18.860;2023-03-21T07:00:22;98129.74;;;8.84;84.05
62057;BME280;48016;50.284;18.860;2023-03-21T07:02:49;98131.77;;;8.85;84.08
62057;BME280;48016;50.284;18.860;2023-03-21T07:05:15;98134.23;;;8.85;83.95
62057;BME280;48016;50.284;18.860;2023-03-21T07:07:42;98136.33;;;8.85;84.05
62057;BME280;48016;50.284;18.860;2023-03-21T07:10:09;98137.89;;;8.88;83.91
62057;BME280;48016;50.284;18.860;2023-03-21T07:12:35;98136.18;;;8.89;83.88
62057;BME280;48016;50.284;18.860;2023-03-21T07:15:02;98140.04;;;8.91;83.97
62057;BME280;48016;50.284;18.860;2023-03-21T07:17:29;98138.53;;;8.94;83.89
62057;BME280;48016;50.284;18.860;2023-03-21T07:19:55;98143.45;;;8.96;83.87
62057;BME280;48016;50.284;18.860;2023-03-21T07:22:21;98143.34;;;8.99;84.01
62057;BME280;48016;50.284;18.860;2023-03-21T07:24:47;98142.16;;;9.03;83.93
62057;BME280;48016;50.284;18.860;2023-03-21T07:27:14;98139.85;;;9.08;84.00
62057;BME280;48016;50.284;18.860;2023-03-21T07:29:40;98143.62;;;9.12;83.77
62057;BME280;48016;50.284;18.860;2023-03-21T07:32:07;98140.27;;;9.19;83.65
62057;BME280;48016;50.284;18.860;2023-03-21T07:34:32;98141.41;;;9.29;83.61
62057;BME280;48016;50.284;18.860;2023-03-21T07:36:59;98135.82;;;9.35;83.62
62057;BME280;48016;50.284;18.860;2023-03-21T07:39:26;98137.91;;;9.41;83.74
62057;BME280;48016;50.284;18.860;2023-03-21T07:41:52;98138.16;;;9.49;83.47
62057;BME280;48016;50.284;18.860;2023-03-21T07:44:22;98137.88;;;9.57;83.38
62057;BME280;48016;50.284;18.860;2023-03-21T07:46:48;98142.27;;;9.64;83.16
62057;BME280;48016;50.284;18.860;2023-03-21T07:49:14;98141.25;;;9.69;83.16
62057;BME280;48016;50.284;18.860;2023-03-21T07:51:40;98142.36;;;9.78;83.13
62057;BME280;48016;50.284;18.860;2023-03-21T07:54:06;98142.77;;;9.85;83.00
62057;BME280;48016;50.284;18.860;2023-03-21T07:56:32;98148.38;;;9.92;82.98
62057;BME280;48016;50.284;18.860;2023-03-21T07:58:58;98146.27;;;10.00;82.96
62057;BME280;48016;50.284;18.860;2023-03-21T08:01:25;98146.57;;;10.07;82.69
62057;BME280;48016;50.284;18.860;2023-03-21T08:03:51;98147.45;;;10.10;82.32
62057;BME280;48016;50.284;18.860;2023-03-21T08:06:19;98148.67;;;10.14;82.19
62057;BME280;48016;50.284;18.860;2023-03-21T08:08:45;98149.29;;;10.10;81.78
62057;BME280;48016;50.284;18.860;2023-03-21T08:11:12;98150.16;;;10.10;81.79
62057;BME280;48016;50.284;18.860;2023-03-21T08:13:39;98152.30;;;10.13;81.78
62057;BME280;48016;50.284;18.860;2023-03-21T08:16:06;98154.77;;;10.18;81.92
62057;BME280;48016;50.284;18.860;2023-03-21T08:18:33;98152.83;;;10.24;81.99
62057;BME280;48016;50.284;18.860;2023-03-21T08:20:59;98155.70;;;10.28;81.97
62057;BME280;48016;50.284;18.860;2023-03-21T08:23:25;98159.02;;;10.29;81.66
62057;BME280;48016;50.284;18.860;2023-03-21T08:25:52;98158.56;;;10.28;81.61
62057;BME280;48016;50.284;18.860;2023-03-21T08:28:18;98159.71;;;10.29;81.48
62057;BME280;48016;50.284;18.860;2023-03-21T08:30:44;98155.02;;;10.36;81.26
62057;BME280;48016;50.284;18.860;2023-03-21T08:33:10;98159.09;;;10.45;81.12
62057;BME280;48016;50.284;18.860;2023-03-21T08:35:38;98155.21;;;10.52;81.20
62057;BME280;48016;50.284;18.860;2023-03-21T08:38:05;98157.19;;;10.62;80.95
62057;BME280;48016;50.284;18.860;2023-03-21T08:40:32;98156.63;;;10.67;80.58
62057;BME280;48016;50.284;18.860;2023-03-21T08:42:58;98160.95;;;10.67;80.16
62057;BME280;48016;50.284;18.860;2023-03-21T08:45:24;98163.16;;;10.65;79.72
62057;BME280;48016;50.284;18.860;2023-03-21T08:47:52;98167.45;;;10.61;79.65
62057;BME280;48016;50.284;18.860;2023-03-21T08:50:21;98163.54;;;10.59;79.41
62057;BME280;48016;50.284;18.860;2023-03-21T08:52:48;98168.55;;;10.55;79.00
62057;BME280;48016;50.284;18.860;2023-03-21T08:55:15;98170.48;;;10.55;78.89
62057;BME280;48016;50.284;18.860;2023-03-21T08:57:43;98171.04;;;10.50;78.18
62057;BME280;48016;50.284;18.860;2023-03-21T09:00:12;98170.13;;;10.52;78.48
62057;BME280;48016;50.284;18.860;2023-03-21T09:02:40;98171.60;;;10.54;78.60
62057;BME280;48016;50.284;18.860;2023-03-21T09:05:07;98173.59;;;10.58;78.64
62057;BME280;48016;50.284;18.860;2023-03-21T09:07:34;98170.39;;;10.64;78.37
62057;BME280;48016;50.284;18.860;2023-03-21T09:10:05;98172.17;;;10.71;78.07
62057;BME280;48016;50.284;18.860;2023-03-21T09:12:32;98175.23;;;10.74;77.85
62057;BME280;48016;50.284;18.860;2023-03-21T09:14:58;98174.36;;;10.74;77.37
62057;BME280;48016;50.284;18.860;2023-03-21T09:17:28;98178.67;;;10.72;77.18
62057;BME280;48016;50.284;18.860;2023-03-21T09:19:54;98181.44;;;10.65;77.08
62057;BME280;48016;50.284;18.860;2023-03-21T09:22:20;98183.02;;;10.54;77.00
62057;BME280;48016;50.284;18.860;2023-03-21T09:24:48;98184.41;;;10.46;76.99
62057;BME280;48016;50.284;18.860;2023-03-21T09:27:15;98190.10;;;10.42;76.85
62057;BME280;48016;50.284;18.860;2023-03-21T09:29:50;98193.26;;;10.38;77.22
62057;BME280;48016;50.284;18.860;2023-03-21T09:32:16;98191.19;;;10.38;77.34
62057;BME280;48016;50.284;18.860;2023-03-21T09:34:45;98192.91;;;10.42;77.31
62057;BME280;48016;50.284;18.860;2023-03-21T09:37:13;98194.68;;;10.47;77.08
62057;BME280;48016;50.284;18.860;2023-03-21T09:39:40;98197.91;;;10.45;76.87
62057;BME280;48016;50.284;18.860;2023-03-21T09:47:29;98201.00;;;10.28;76.68
62057;BME280;48016;50.284;18.860;2023-03-21T09:55:33;98205.88;;;10.47;75.68
62057;BME280;48016;50.284;18.860;2023-03-21T10:00:39;98200.09;;;10.65;75.30
62057;BME280;48016;50.284;18.860;2023-03-21T10:03:30;98196.11;;;10.69;75.45
62057;BME280;48016;50.284;18.860;2023-03-21T10:06:03;98199.73;;;10.75;75.20
62057;BME280;48016;50.284;18.860;2023-03-21T10:08:38;98198.05;;;10.75;74.65
62057;BME280;48016;50.284;18.860;2023-03-21T10:13:41;98196.30;;;10.87;73.97
62057;BME280;48016;50.284;18.860;2023-03-21T10:16:20;98192.56;;;10.88;73.51
62057;BME280;48016;50.284;18.860;2023-03-21T10:18:48;98192.75;;;10.90;73.23
62057;BME280;48016;50.284;18.860;2023-03-21T10:21:19;98194.56;;;10.92;72.95
62057;BME280;48016;50.284;18.860;2023-03-21T10:23:47;98193.12;;;10.95;72.70
62057;BME280;48016;50.284;18.860;2023-03-21T10:26:15;98195.48;;;10.99;72.72
62057;BME280;48016;50.284;18.860;2023-03-21T10:28:41;98196.50;;;11.06;72.43
62057;BME280;48016;50.284;18.860;2023-03-21T10:31:09;98198.55;;;11.14;72.40
62057;BME280;48016;50.284;18.860;2023-03-21T10:33:42;98198.30;;;11.24;71.47
62057;BME280;48016;50.284;18.860;2023-03-21T10:36:11;98198.33;;;11.31;71.17
62057;BME280;48016;50.284;18.860;2023-03-21T10:38:44;98197.28;;;11.28;71.03
62057;BME280;48016;50.284;18.860;2023-03-21T10:41:11;98199.84;;;11.30;71.10
62057;BME280;48016;50.284;18.860;2023-03-21T10:43:38;98198.48;;;11.31;71.01
62057;BME280;48016;50.284;18.860;2023-03-21T10:46:19;98205.19;;;11.28;70.70
62057;BME280;48016;50.284;18.860;2023-03-21T10:48:50;98202.55;;;11.24;70.69
62057;BME280;48016;50.284;18.860;2023-03-21T10:51:20;98197.64;;;11.15;70.69
62057;BME280;48016;50.284;18.860;2023-03-21T10:53:55;98192.81;;;11.21;71.05
62057;BME280;48016;50.284;18.860;2023-03-21T10:56:28;98194.17;;;11.32;71.35
62057;BME280;48016;50.284;18.860;2023-03-21T10:58:57;98192.66;;;11.44;71.41
62057;BME280;48016;50.284;18.860;2023-03-21T11:01:45;98195.11;;;11.48;70.31
62057;BME280;48016;50.284;18.860;2023-03-21T11:04:15;98195.23;;;11.50;70.53
62057;BME280;48016;50.284;18.860;2023-03-21T11:06:55;98196.20;;;11.60;70.26
62057;BME280;48016;50.284;18.860;2023-03-21T11:09:24;98193.54;;;11.69;69.47
62057;BME280;48016;50.284;18.860;2023-03-21T11:14:38;98192.34;;;11.90;68.56
62057;BME280;48016;50.284;18.860;2023-03-21T11:17:22;98194.98;;;12.00;68.54
62057;BME280;48016;50.284;18.860;2023-03-21T11:19:56;98192.02;;;12.11;67.98
62057;BME280;48016;50.284;18.860;2023-03-21T11:22:24;98190.14;;;12.16;67.65
62057;BME280;48016;50.284;18.860;2023-03-21T11:24:53;98193.36;;;12.24;67.83
62057;BME280;48016;50.284;18.860;2023-03-21T11:27:22;98190.44;;;12.27;67.17
62057;BME280;48016;50.284;18.860;2023-03-21T11:29:54;98190.70;;;12.27;66.90
62057;BME280;48016;50.284;18.860;2023-03-21T11:34:59;98187.42;;;12.17;66.31
62057;BME280;48016;50.284;18.860;2023-03-21T11:37:31;98184.98;;;12.13;66.57
62057;BME280;48016;50.284;18.860;2023-03-21T11:42:46;98184.68;;;12.01;66.97
62057;BME280;48016;50.284;18.860;2023-03-21T11:45:20;98183.38;;;11.86;66.83
62057;BME280;48016;50.284;18.860;2023-03-21T11:47:47;98183.30;;;11.70;66.74
62057;BME280;48016;50.284;18.860;2023-03-21T11:50:21;98182.13;;;11.59;66.60
62057;BME280;48016;50.284;18.860;2023-03-21T11:55:31;98178.63;;;11.51;66.94
62057;BME280;48016;50.284;18.860;2023-03-21T12:00:34;98177.14;;;11.59;66.75
62057;BME280;48016;50.284;18.860;2023-03-21T12:05:53;98171.28;;;11.70;67.02
62057;BME280;48016;50.284;18.860;2023-03-21T12:08:39;98169.13;;;11.76;67.20
62057;BME280;48016;50.284;18.860;2023-03-21T12:24:50;98163.73;;;11.88;66.12
62057;BME280;48016;50.284;18.860;2023-03-21T12:32:51;98155.69;;;11.85;65.94
62057;BME280;48016;50.284;18.860;2023-03-21T12:43:41;98148.05;;;11.74;65.69
62057;BME280;48016;50.284;18.860;2023-03-21T12:48:40;98145.75;;;11.80;65.83
62057;BME280;48016;50.284;18.860;2023-03-21T12:51:21;98142.02;;;11.82;66.17
62057;BME280;48016;50.284;18.860;2023-03-21T12:56:49;98140.71;;;11.92;66.23
62057;BME280;48016;50.284;18.860;2023-03-21T12:59:24;98135.80;;;12.01;66.63
62057;BME280;48016;50.284;18.860;2023-03-21T13:01:55;98133.48;;;12.06;66.57
62057;BME280;48016;50.284;18.860;2023-03-21T13:04:42;98129.70;;;12.05;66.74
62057;BME280;48016;50.284;18.860;2023-03-21T13:07:14;98128.34;;;12.04;66.91
62057;BME280;48016;50.284;18.860;2023-03-21T13:09:43;98125.02;;;12.01;66.61
62057;BME280;48016;50.284;18.860;2023-03-21T13:12:35;98125.62;;;12.00;66.60
62057;BME280;48016;50.284;18.860;2023-03-21T13:15:22;98125.89;;;11.98;66.65
62057;BME280;48016;50.284;18.860;2023-03-21T13:20:43;98124.68;;;11.90;67.18
62057;BME280;48016;50.284;18.860;2023-03-21T13:23:11;98125.15;;;11.86;67.17
62057;BME280;48016;50.284;18.860;2023-03-21T13:25:42;98126.41;;;11.87;67.40
62057;BME280;48016;50.284;18.860;2023-03-21T13:28:26;98125.86;;;11.88;67.23
62057;BME280;48016;50.284;18.860;2023-03-21T13:31:19;98122.92;;;11.86;67.01
62057;BME280;48016;50.284;18.860;2023-03-21T13:33:47;98118.23;;;11.83;66.79
62057;BME280;48016;50.284;18.860;2023-03-21T13:36:17;98119.15;;;11.89;67.11
62057;BME280;48016;50.284;18.860;2023-03-21T13:38:52;98116.79;;;11.98;66.94
62057;BME280;48016;50.284;18.860;2023-03-21T13:51:51;98116.55;;;11.88;66.47
62057;BME280;48016;50.284;18.860;2023-03-21T13:54:42;98114.86;;;11.78;65.98
62057;BME280;48016;50.284;18.860;2023-03-21T14:00:19;98109.95;;;11.63;65.94
62057;BME280;48016;50.284;18.860;2023-03-21T14:03:10;98107.17;;;11.59;66.08
62057;BME280;48016;50.284;18.860;2023-03-21T14:05:38;98103.27;;;11.56;66.28
62057;BME280;48016;50.284;18.860;2023-03-21T14:08:07;98102.02;;;11.54;66.47
62057;BME280;48016;50.284;18.860;2023-03-21T14:10:38;98101.18;;;11.48;66.48
62057;BME280;48016;50.284;18.860;2023-03-21T14:13:08;98098.99;;;11.42;66.56
62057;BME280;48016;50.284;18.860;2023-03-21T14:15:45;98094.27;;;11.38;66.67
62057;BME280;48016;50.284;18.860;2023-03-21T14:18:15;98095.20;;;11.41;66.56
62057;BME280;48016;50.284;18.860;2023-03-21T14:20:41;98093.52;;;11.45;66.67
62057;BME280;48016;50.284;18.860;2023-03-21T14:23:14;98093.86;;;11.47;67.02
62057;BME280;48016;50.284;18.860;2023-03-21T14:25:41;98093.17;;;11.48;67.06
62057;BME280;48016;50.284;18.860;2023-03-21T14:28:17;98094.55;;;11.44;66.92
62057;BME280;48016;50.284;18.860;2023-03-21T14:30:46;98094.23;;;11.41;67.04
62057;BME280;48016;50.284;18.860;2023-03-21T14:33:21;98094.33;;;11.38;67.02
62057;BME280;48016;50.284;18.860;2023-03-21T14:35:48;98095.27;;;11.32;66.98
62057;BME280;48016;50.284;18.860;2023-03-21T14:38:41;98094.05;;;11.25;66.97
62057;BME280;48016;50.284;18.860;2023-03-21T14:41:22;98094.45;;;11.19;67.23
62057;BME280;48016;50.284;18.860;2023-03-21T14:44:17;98093.83;;;11.12;67.21
62057;BME280;48016;50.284;18.860;2023-03-21T14:47:20;98092.93;;;11.03;67.21
62057;BME280;48016;50.284;18.860;2023-03-21T14:49:47;98092.02;;;10.94;67.44
62057;BME280;48016;50.284;18.860;2023-03-21T14:52:20;98092.29;;;10.87;67.47
62057;BME280;48016;50.284;18.860;2023-03-21T14:54:47;98092.74;;;10.80;67.68
62057;BME280;48016;50.284;18.860;2023-03-21T14:57:18;98092.52;;;10.71;67.63
62057;BME280;48016;50.284;18.860;2023-03-21T14:59:48;98091.23;;;10.64;67.74
62057;BME280;48016;50.284;18.860;2023-03-21T15:02:22;98092.14;;;10.62;67.91
62057;BME280;48016;50.284;18.860;2023-03-21T15:04:52;98093.31;;;10.59;68.18